Terminal Aerodrome Forecast
Issued by NWS Tampa Bay Area, FL

Home | Current Version | Previous Version | Text Only | Print | Product List | Glossary On
Versions: 1 2 3 4 5 6 7 8 9 10 11 12 13
000
FTUS42 KTBW 240520
TAFFMY
TAF
KFMY 240520Z 2406/2506 05006KT P6SM BKN250
     FM241400 07007KT P6SM SCT030 SCT250
     FM241800 06008KT P6SM VCTS SCT030CB SCT100 BKN250
     FM250100 06006KT P6SM SCT030 BKN080=

USA.gov is the U.S. government's official web portal to all federal, state and local government web resources and services.